Sky Queen — 3EHV9 — position and weather

sailwx.info

Track history (hours):
 
Tides and Currents Weather Stations Pressure Air Temp Water Temp Dewpoint Dewpoint Depression Visibility Wind Speed Wind Dir Waves Ship Positions

Sky Queen

Last reported at 2016-Aug-19 05:34 UTC. Time now 2016-Sep-28 15:24 UTC.
Position N 40°17' E 122°05'.
Warning: this ship's position is 40 days out of date.

Length 89 m; draft 3.2 m.

Type: Cargo ship. MMSI: 372259000.

Date/timePositionNaut miles runAvg speedWind from/ knotsBaromVisibWave heightAir tempDewpointWater temp
2016-Aug-19 05:34N 40°17' E 122°05'0 0.4
2016-Aug-19 04:31N 40°18' E 122°06'0 0.0
2016-Aug-18 23:33N 40°18' E 122°06'0 0.0
2016-Aug-18 22:33N 40°18' E 122°06'0 0.0
2016-Aug-18 21:33N 40°18' E 122°06'33 1.0
2016-Aug-17 12:28N 39°60' E 121°28'85 9.5
2016-Aug-17 03:33N 38°38' E 120°57'1010.4
2016-Aug-17 02:33N 38°31' E 121°07'1210.3
2016-Aug-17 01:21N 38°24' E 121°19'8 9.4
2016-Aug-17 00:31N 38°19' E 121°27'6 5.6
2016-Aug-16 23:27N 38°15' E 121°33'8 8.8
2016-Aug-16 22:33N 38°10' E 121°41'9 8.7
2016-Aug-16 21:33N 38°05' E 121°50'9 8.5
2016-Aug-16 20:33N 38°00' E 121°59'7 7.2
2016-Aug-16 19:33N 37°56' E 122°06'8 8.1
2016-Aug-16 18:33N 37°51' E 122°14'8 7.9
2016-Aug-16 17:33N 37°46' E 122°22'8 7.6
2016-Aug-16 16:33N 37°42' E 122°30'7 7.2
2016-Aug-16 15:33N 37°38' E 122°38'6 5.6
2016-Aug-16 14:33N 37°35' E 122°43'10 6.9
2016-Aug-16 13:09N 37°28' E 122°52'8 7.2
2016-Aug-16 12:04N 37°20' E 122°53'12 8.2
2016-Aug-16 10:33N 37°08' E 122°51'7 6.6
2016-Aug-16 09:32N 37°01' E 122°47'9 9.2
2016-Aug-16 08:32N 36°53' E 122°42'9 8.7
2016-Aug-16 07:33N 36°46' E 122°37'1 1.5
2016-Aug-16 06:33N 36°45' E 122°35'12 5.8
2016-Aug-16 04:33N 36°52' E 122°23'  
Track history (hours):
 
Tides and Currents Weather Stations Pressure Air Temp Water Temp Dewpoint Dewpoint Depression Visibility Wind Speed Wind Dir Waves Ship Positions

Sky Queen

Last reported at 2016-Aug-19 05:34 UTC. Time now 2016-Sep-28 15:24 UTC.
Position N 40°17' E 122°05'.
Warning: this ship's position is 40 days out of date.

Length 89 m; draft 3.2 m.

Type: Cargo ship. MMSI: 372259000.

Date/timePositionNaut miles runAvg speedWind from/ knotsBaromVisibWave heightAir tempDewpointWater temp
2016-Aug-19 05:34N 40°17' E 122°05'0 0.4
2016-Aug-19 04:31N 40°18' E 122°06'0 0.0
2016-Aug-18 23:33N 40°18' E 122°06'0 0.0
2016-Aug-18 22:33N 40°18' E 122°06'0 0.0
2016-Aug-18 21:33N 40°18' E 122°06'33 1.0
2016-Aug-17 12:28N 39°60' E 121°28'85 9.5
2016-Aug-17 03:33N 38°38' E 120°57'1010.4
2016-Aug-17 02:33N 38°31' E 121°07'1210.3
2016-Aug-17 01:21N 38°24' E 121°19'8 9.4
2016-Aug-17 00:31N 38°19' E 121°27'6 5.6
2016-Aug-16 23:27N 38°15' E 121°33'8 8.8
2016-Aug-16 22:33N 38°10' E 121°41'9 8.7
2016-Aug-16 21:33N 38°05' E 121°50'9 8.5
2016-Aug-16 20:33N 38°00' E 121°59'7 7.2
2016-Aug-16 19:33N 37°56' E 122°06'8 8.1
2016-Aug-16 18:33N 37°51' E 122°14'8 7.9
2016-Aug-16 17:33N 37°46' E 122°22'8 7.6
2016-Aug-16 16:33N 37°42' E 122°30'7 7.2
2016-Aug-16 15:33N 37°38' E 122°38'6 5.6
2016-Aug-16 14:33N 37°35' E 122°43'10 6.9
2016-Aug-16 13:09N 37°28' E 122°52'8 7.2
2016-Aug-16 12:04N 37°20' E 122°53'12 8.2
2016-Aug-16 10:33N 37°08' E 122°51'7 6.6
2016-Aug-16 09:32N 37°01' E 122°47'9 9.2
2016-Aug-16 08:32N 36°53' E 122°42'9 8.7
2016-Aug-16 07:33N 36°46' E 122°37'1 1.5
2016-Aug-16 06:33N 36°45' E 122°35'12 5.8
2016-Aug-16 04:33N 36°52' E 122°23'  

Dump ship's entire track history